sensor_id;sensor_type;location;lat;lon;timestamp;temperature;humidity
23283;DHT22;11810;51.178;3.878;2023-04-03T00:02:07;1.60;99.90
23283;DHT22;11810;51.178;3.878;2023-04-03T00:04:33;1.60;99.90
23283;DHT22;11810;51.178;3.878;2023-04-03T00:07:00;1.60;99.90
23283;DHT22;11810;51.178;3.878;2023-04-03T00:09:26;1.50;99.90
23283;DHT22;11810;51.178;3.878;2023-04-03T00:11:52;1.50;99.90
23283;DHT22;11810;51.178;3.878;2023-04-03T00:14:18;1.50;99.90
23283;DHT22;11810;51.178;3.878;2023-04-03T00:16:44;1.50;99.90
23283;DHT22;11810;51.178;3.878;2023-04-03T00:19:09;1.50;99.90
23283;DHT22;11810;51.178;3.878;2023-04-03T00:23:10;1.60;99.90
23283;DHT22;11810;51.178;3.878;2023-04-03T00:25:36;1.50;99.90
23283;DHT22;11810;51.178;3.878;2023-04-03T00:28:03;1.50;99.90
23283;DHT22;11810;51.178;3.878;2023-04-03T00:30:29;1.50;99.90
23283;DHT22;11810;51.178;3.878;2023-04-03T00:32:56;1.40;99.90
23283;DHT22;11810;51.178;3.878;2023-04-03T00:35:22;1.40;99.90
23283;DHT22;11810;51.178;3.878;2023-04-03T00:37:51;1.40;99.90
23283;DHT22;11810;51.178;3.878;2023-04-03T00:40:18;1.40;99.90
23283;DHT22;11810;51.178;3.878;2023-04-03T00:42:46;1.40;99.90
23283;DHT22;11810;51.178;3.878;2023-04-03T00:46:12;1.40;99.90
23283;DHT22;11810;51.178;3.878;2023-04-03T00:48:44;1.40;99.90
23283;DHT22;11810;51.178;3.878;2023-04-03T00:51:14;1.40;99.90
23283;DHT22;11810;51.178;3.878;2023-04-03T00:53:44;1.40;99.90
23283;DHT22;11810;51.178;3.878;2023-04-03T00:56:14;1.50;99.90
23283;DHT22;11810;51.178;3.878;2023-04-03T00:58:46;1.50;99.90
23283;DHT22;11810;51.178;3.878;2023-04-03T01:01:20;1.50;99.90
23283;DHT22;11810;51.178;3.878;2023-04-03T01:04:39;1.50;99.90
23283;DHT22;11810;51.178;3.878;2023-04-03T01:09:33;1.40;99.90
23283;DHT22;11810;51.178;3.878;2023-04-03T01:14:58;1.50;99.90
23283;DHT22;11810;51.178;3.878;2023-04-03T01:17:30;1.40;99.90
23283;DHT22;11810;51.178;3.878;2023-04-03T01:25:26;1.30;99.90
23283;DHT22;11810;51.178;3.878;2023-04-03T01:27:52;1.30;99.90
23283;DHT22;11810;51.178;3.878;2023-04-03T01:30:20;1.20;99.90
23283;DHT22;11810;51.178;3.878;2023-04-03T01:32:47;1.20;99.90
23283;DHT22;11810;51.178;3.878;2023-04-03T01:35:13;1.20;99.90
23283;DHT22;11810;51.178;3.878;2023-04-03T01:38:18;1.30;99.90
23283;DHT22;11810;51.178;3.878;2023-04-03T01:40:44;1.40;99.90
23283;DHT22;11810;51.178;3.878;2023-04-03T01:43:10;1.30;99.90
23283;DHT22;11810;51.178;3.878;2023-04-03T01:45:36;1.20;99.90
23283;DHT22;11810;51.178;3.878;2023-04-03T01:48:02;1.30;99.90
23283;DHT22;11810;51.178;3.878;2023-04-03T01:51:20;1.20;99.90
23283;DHT22;11810;51.178;3.878;2023-04-03T01:53:46;1.20;99.90
23283;DHT22;11810;51.178;3.878;2023-04-03T01:56:12;1.20;99.90
23283;DHT22;11810;51.178;3.878;2023-04-03T01:58:38;1.20;99.90
23283;DHT22;11810;51.178;3.878;2023-04-03T02:01:04;1.20;99.90
23283;DHT22;11810;51.178;3.878;2023-04-03T02:03:30;1.10;99.90
23283;DHT22;11810;51.178;3.878;2023-04-03T02:05:56;1.20;99.90
23283;DHT22;11810;51.178;3.878;2023-04-03T02:08:22;1.10;99.90
23283;DHT22;11810;51.178;3.878;2023-04-03T02:10:49;1.10;99.90
23283;DHT22;11810;51.178;3.878;2023-04-03T02:13:15;1.20;99.90
23283;DHT22;11810;51.178;3.878;2023-04-03T02:15:41;1.30;99.90
23283;DHT22;11810;51.178;3.878;2023-04-03T02:18:08;1.20;99.90
23283;DHT22;11810;51.178;3.878;2023-04-03T02:20:34;1.10;99.90
23283;DHT22;11810;51.178;3.878;2023-04-03T02:23:00;1.20;99.90
23283;DHT22;11810;51.178;3.878;2023-04-03T02:25:26;1.20;99.90
23283;DHT22;11810;51.178;3.878;2023-04-03T02:27:52;1.20;99.90
23283;DHT22;11810;51.178;3.878;2023-04-03T02:30:18;1.20;99.90
23283;DHT22;11810;51.178;3.878;2023-04-03T02:32:44;1.20;99.90
23283;DHT22;11810;51.178;3.878;2023-04-03T02:35:11;1.20;99.90
23283;DHT22;11810;51.178;3.878;2023-04-03T02:37:37;1.20;99.90
23283;DHT22;11810;51.178;3.878;2023-04-03T02:40:05;1.20;99.90
23283;DHT22;11810;51.178;3.878;2023-04-03T02:42:31;1.30;99.90
23283;DHT22;11810;51.178;3.878;2023-04-03T02:44:57;1.30;99.90
23283;DHT22;11810;51.178;3.878;2023-04-03T02:47:23;1.30;99.90
23283;DHT22;11810;51.178;3.878;2023-04-03T02:49:49;1.30;99.90
23283;DHT22;11810;51.178;3.878;2023-04-03T02:52:15;1.30;99.90
23283;DHT22;11810;51.178;3.878;2023-04-03T02:55:27;1.30;99.90
23283;DHT22;11810;51.178;3.878;2023-04-03T02:57:53;1.20;99.90
23283;DHT22;11810;51.178;3.878;2023-04-03T03:00:20;1.20;99.90
23283;DHT22;11810;51.178;3.878;2023-04-03T03:02:45;1.10;99.90
23283;DHT22;11810;51.178;3.878;2023-04-03T03:05:11;1.20;99.90
23283;DHT22;11810;51.178;3.878;2023-04-03T03:09:30;1.20;99.90
23283;DHT22;11810;51.178;3.878;2023-04-03T03:11:56;1.20;99.90
23283;DHT22;11810;51.178;3.878;2023-04-03T03:14:23;1.10;99.90
23283;DHT22;11810;51.178;3.878;2023-04-03T03:16:49;1.20;99.90
23283;DHT22;11810;51.178;3.878;2023-04-03T03:19:15;1.30;99.90
23283;DHT22;11810;51.178;3.878;2023-04-03T03:21:41;1.10;99.90
23283;DHT22;11810;51.178;3.878;2023-04-03T03:24:07;1.10;99.90
23283;DHT22;11810;51.178;3.878;2023-04-03T03:26:33;1.00;99.90
23283;DHT22;11810;51.178;3.878;2023-04-03T03:28:59;1.00;99.90
23283;DHT22;11810;51.178;3.878;2023-04-03T03:31:25;1.00;99.90
23283;DHT22;11810;51.178;3.878;2023-04-03T03:33:51;1.00;99.90
23283;DHT22;11810;51.178;3.878;2023-04-03T03:36:17;0.90;99.90
23283;DHT22;11810;51.178;3.878;2023-04-03T03:38:43;0.90;99.90
23283;DHT22;11810;51.178;3.878;2023-04-03T03:41:09;0.90;99.90
23283;DHT22;11810;51.178;3.878;2023-04-03T03:43:35;1.00;99.90
23283;DHT22;11810;51.178;3.878;2023-04-03T03:46:01;0.90;99.90
23283;DHT22;11810;51.178;3.878;2023-04-03T03:48:26;0.90;99.90
23283;DHT22;11810;51.178;3.878;2023-04-03T03:50:52;0.90;99.90
23283;DHT22;11810;51.178;3.878;2023-04-03T03:53:18;0.90;99.90
23283;DHT22;11810;51.178;3.878;2023-04-03T03:55:45;0.90;99.90
23283;DHT22;11810;51.178;3.878;2023-04-03T03:58:10;0.90;99.90
23283;DHT22;11810;51.178;3.878;2023-04-03T04:00:36;0.90;99.90
23283;DHT22;11810;51.178;3.878;2023-04-03T04:07:36;0.80;99.90
23283;DHT22;11810;51.178;3.878;2023-04-03T04:10:02;0.80;99.90
23283;DHT22;11810;51.178;3.878;2023-04-03T04:12:29;0.80;99.90
23283;DHT22;11810;51.178;3.878;2023-04-03T04:15:38;0.70;99.90
23283;DHT22;11810;51.178;3.878;2023-04-03T04:18:04;0.90;99.90
23283;DHT22;11810;51.178;3.878;2023-04-03T04:20:30;0.80;99.90
23283;DHT22;11810;51.178;3.878;2023-04-03T04:22:56;0.80;99.90
23283;DHT22;11810;51.178;3.878;2023-04-03T04:25:21;0.80;99.90
23283;DHT22;11810;51.178;3.878;2023-04-03T04:29:38;0.70;99.90
23283;DHT22;11810;51.178;3.878;2023-04-03T04:32:04;0.70;99.90
23283;DHT22;11810;51.178;3.878;2023-04-03T04:34:30;0.70;99.90
23283;DHT22;11810;51.178;3.878;2023-04-03T04:36:56;0.70;99.90
23283;DHT22;11810;51.178;3.878;2023-04-03T04:39:22;0.60;99.90
23283;DHT22;11810;51.178;3.878;2023-04-03T04:41:48;0.60;99.90
23283;DHT22;11810;51.178;3.878;2023-04-03T04:44:14;0.70;99.90
23283;DHT22;11810;51.178;3.878;2023-04-03T04:46:40;0.70;99.90
23283;DHT22;11810;51.178;3.878;2023-04-03T04:49:06;0.70;99.90
23283;DHT22;11810;51.178;3.878;2023-04-03T04:51:32;0.70;99.90
23283;DHT22;11810;51.178;3.878;2023-04-03T04:53:58;0.70;99.90
23283;DHT22;11810;51.178;3.878;2023-04-03T04:56:24;0.70;99.90
23283;DHT22;11810;51.178;3.878;2023-04-03T04:58:51;0.60;99.90
23283;DHT22;11810;51.178;3.878;2023-04-03T05:02:42;0.60;99.90
23283;DHT22;11810;51.178;3.878;2023-04-03T05:05:08;0.70;99.90
23283;DHT22;11810;51.178;3.878;2023-04-03T05:07:34;0.60;99.90
23283;DHT22;11810;51.178;3.878;2023-04-03T05:10:02;0.60;99.90
23283;DHT22;11810;51.178;3.878;2023-04-03T05:12:29;0.50;99.90
23283;DHT22;11810;51.178;3.878;2023-04-03T05:14:55;0.50;99.90
23283;DHT22;11810;51.178;3.878;2023-04-03T05:17:21;0.50;99.90
23283;DHT22;11810;51.178;3.878;2023-04-03T05:19:47;0.50;99.90
23283;DHT22;11810;51.178;3.878;2023-04-03T05:22:12;0.60;99.90
23283;DHT22;11810;51.178;3.878;2023-04-03T05:24:38;0.60;99.90
23283;DHT22;11810;51.178;3.878;2023-04-03T05:27:04;0.60;99.90
23283;DHT22;11810;51.178;3.878;2023-04-03T05:29:30;0.70;99.90
23283;DHT22;11810;51.178;3.878;2023-04-03T05:31:56;0.70;99.90
23283;DHT22;11810;51.178;3.878;2023-04-03T05:34:22;0.60;99.90
23283;DHT22;11810;51.178;3.878;2023-04-03T05:36:48;0.60;99.90
23283;DHT22;11810;51.178;3.878;2023-04-03T05:39:14;0.60;99.90
23283;DHT22;11810;51.178;3.878;2023-04-03T05:42:46;0.80;99.90
23283;DHT22;11810;51.178;3.878;2023-04-03T05:45:12;0.80;99.90
23283;DHT22;11810;51.178;3.878;2023-04-03T05:47:38;0.90;99.90
23283;DHT22;11810;51.178;3.878;2023-04-03T05:50:05;1.00;99.90
23283;DHT22;11810;51.178;3.878;2023-04-03T05:52:41;1.00;99.90
23283;DHT22;11810;51.178;3.878;2023-04-03T05:55:08;1.00;99.90
23283;DHT22;11810;51.178;3.878;2023-04-03T05:58:49;1.40;99.90
23283;DHT22;11810;51.178;3.878;2023-04-03T06:01:15;1.90;99.90
23283;DHT22;11810;51.178;3.878;2023-04-03T06:03:41;2.20;99.90
23283;DHT22;11810;51.178;3.878;2023-04-03T06:06:07;2.40;99.90
23283;DHT22;11810;51.178;3.878;2023-04-03T06:08:33;2.90;99.90
23283;DHT22;11810;51.178;3.878;2023-04-03T06:11:00;3.10;99.90
23283;DHT22;11810;51.178;3.878;2023-04-03T06:13:27;3.20;99.90
23283;DHT22;11810;51.178;3.878;2023-04-03T06:15:54;3.50;99.90
23283;DHT22;11810;51.178;3.878;2023-04-03T06:18:20;3.60;99.90
23283;DHT22;11810;51.178;3.878;2023-04-03T06:20:46;3.70;99.90
23283;DHT22;11810;51.178;3.878;2023-04-03T06:23:12;3.60;99.90
23283;DHT22;11810;51.178;3.878;2023-04-03T06:25:37;4.00;99.90
23283;DHT22;11810;51.178;3.878;2023-04-03T06:28:03;4.80;99.90
23283;DHT22;11810;51.178;3.878;2023-04-03T06:30:29;5.60;99.90
23283;DHT22;11810;51.178;3.878;2023-04-03T06:32:55;6.30;99.90
23283;DHT22;11810;51.178;3.878;2023-04-03T06:35:22;7.00;99.90
23283;DHT22;11810;51.178;3.878;2023-04-03T06:37:49;7.60;99.90
23283;DHT22;11810;51.178;3.878;2023-04-03T06:40:19;7.90;99.90
23283;DHT22;11810;51.178;3.878;2023-04-03T06:42:51;8.00;99.90
23283;DHT22;11810;51.178;3.878;2023-04-03T06:45:17;8.60;99.90
23283;DHT22;11810;51.178;3.878;2023-04-03T06:48:53;8.20;99.90
23283;DHT22;11810;51.178;3.878;2023-04-03T06:51:24;7.30;99.90
23283;DHT22;11810;51.178;3.878;2023-04-03T06:53:53;7.30;99.90
23283;DHT22;11810;51.178;3.878;2023-04-03T06:56:20;7.40;99.90
23283;DHT22;11810;51.178;3.878;2023-04-03T06:58:46;7.60;99.90
23283;DHT22;11810;51.178;3.878;2023-04-03T07:01:15;7.90;99.90
23283;DHT22;11810;51.178;3.878;2023-04-03T07:03:41;8.10;99.90
23283;DHT22;11810;51.178;3.878;2023-04-03T07:06:08;8.10;99.90
23283;DHT22;11810;51.178;3.878;2023-04-03T07:08:35;8.10;99.90
23283;DHT22;11810;51.178;3.878;2023-04-03T07:11:01;7.90;99.90
23283;DHT22;11810;51.178;3.878;2023-04-03T07:13:27;7.90;99.90
23283;DHT22;11810;51.178;3.878;2023-04-03T07:15:53;7.70;99.90
23283;DHT22;11810;51.178;3.878;2023-04-03T07:18:19;7.90;99.90
23283;DHT22;11810;51.178;3.878;2023-04-03T07:20:45;8.10;99.90
23283;DHT22;11810;51.178;3.878;2023-04-03T07:23:11;8.30;99.90
23283;DHT22;11810;51.178;3.878;2023-04-03T07:25:45;8.60;99.90
23283;DHT22;11810;51.178;3.878;2023-04-03T07:28:12;8.80;99.90
23283;DHT22;11810;51.178;3.878;2023-04-03T07:30:45;9.00;99.90
23283;DHT22;11810;51.178;3.878;2023-04-03T07:33:12;9.60;99.90
23283;DHT22;11810;51.178;3.878;2023-04-03T07:35:39;9.90;99.90
23283;DHT22;11810;51.178;3.878;2023-04-03T07:38:06;10.10;99.90
23283;DHT22;11810;51.178;3.878;2023-04-03T07:40:32;10.40;99.90
23283;DHT22;11810;51.178;3.878;2023-04-03T07:42:58;10.70;99.90
23283;DHT22;11810;51.178;3.878;2023-04-03T07:45:25;11.10;99.90
23283;DHT22;11810;51.178;3.878;2023-04-03T07:47:51;11.30;99.90
23283;DHT22;11810;51.178;3.878;2023-04-03T07:50:17;11.60;99.90
23283;DHT22;11810;51.178;3.878;2023-04-03T07:52:43;11.90;99.90
23283;DHT22;11810;51.178;3.878;2023-04-03T07:55:09;12.00;99.90
23283;DHT22;11810;51.178;3.878;2023-04-03T07:57:36;12.30;99.90
23283;DHT22;11810;51.178;3.878;2023-04-03T08:00:04;12.80;99.90
23283;DHT22;11810;51.178;3.878;2023-04-03T08:02:30;12.90;99.90
23283;DHT22;11810;51.178;3.878;2023-04-03T08:05:00;13.10;99.90
23283;DHT22;11810;51.178;3.878;2023-04-03T08:07:26;13.10;99.90
23283;DHT22;11810;51.178;3.878;2023-04-03T08:09:52;13.20;99.90
23283;DHT22;11810;51.178;3.878;2023-04-03T08:12:18;13.40;99.90
23283;DHT22;11810;51.178;3.878;2023-04-03T08:14:44;13.80;99.90
23283;DHT22;11810;51.178;3.878;2023-04-03T08:17:10;14.30;99.90
23283;DHT22;11810;51.178;3.878;2023-04-03T08:19:40;14.40;99.90
23283;DHT22;11810;51.178;3.878;2023-04-03T08:22:06;15.00;99.90
23283;DHT22;11810;51.178;3.878;2023-04-03T08:24:33;15.30;99.90
23283;DHT22;11810;51.178;3.878;2023-04-03T08:26:59;15.20;99.90
23283;DHT22;11810;51.178;3.878;2023-04-03T08:29:26;15.70;99.90
23283;DHT22;11810;51.178;3.878;2023-04-03T08:31:52;15.20;99.90
23283;DHT22;11810;51.178;3.878;2023-04-03T08:34:18;15.00;99.90
23283;DHT22;11810;51.178;3.878;2023-04-03T08:36:45;15.00;99.90
23283;DHT22;11810;51.178;3.878;2023-04-03T08:39:11;15.30;99.90
23283;DHT22;11810;51.178;3.878;2023-04-03T08:41:39;15.80;99.90
23283;DHT22;11810;51.178;3.878;2023-04-03T08:52:26;16.50;99.90
23283;DHT22;11810;51.178;3.878;2023-04-03T08:55:02;16.20;99.90
23283;DHT22;11810;51.178;3.878;2023-04-03T08:57:36;16.40;99.90
23283;DHT22;11810;51.178;3.878;2023-04-03T09:00:19;16.60;99.90
23283;DHT22;11810;51.178;3.878;2023-04-03T09:02:54;16.50;99.90
23283;DHT22;11810;51.178;3.878;2023-04-03T09:05:41;16.90;99.90
23283;DHT22;11810;51.178;3.878;2023-04-03T09:08:14;17.10;99.90
23283;DHT22;11810;51.178;3.878;2023-04-03T09:10:42;16.90;99.90
23283;DHT22;11810;51.178;3.878;2023-04-03T09:15:51;17.00;99.90
23283;DHT22;11810;51.178;3.878;2023-04-03T09:18:32;17.40;99.90
23283;DHT22;11810;51.178;3.878;2023-04-03T09:21:23;17.80;99.90
23283;DHT22;11810;51.178;3.878;2023-04-03T09:23:52;17.80;99.90
23283;DHT22;11810;51.178;3.878;2023-04-03T09:28:53;17.10;99.90
23283;DHT22;11810;51.178;3.878;2023-04-03T09:31:26;17.00;99.90
23283;DHT22;11810;51.178;3.878;2023-04-03T09:33:59;16.50;99.90
23283;DHT22;11810;51.178;3.878;2023-04-03T09:39:21;16.70;99.90
23283;DHT22;11810;51.178;3.878;2023-04-03T09:42:05;16.60;99.90
23283;DHT22;11810;51.178;3.878;2023-04-03T09:44:36;17.00;99.90
23283;DHT22;11810;51.178;3.878;2023-04-03T09:47:26;17.40;99.90
23283;DHT22;11810;51.178;3.878;2023-04-03T09:52:38;16.50;99.90
23283;DHT22;11810;51.178;3.878;2023-04-03T09:55:13;16.50;99.90
23283;DHT22;11810;51.178;3.878;2023-04-03T09:57:40;16.70;99.90
23283;DHT22;11810;51.178;3.878;2023-04-03T10:00:23;16.40;99.90
23283;DHT22;11810;51.178;3.878;2023-04-03T10:02:54;16.60;99.90
23283;DHT22;11810;51.178;3.878;2023-04-03T10:05:44;17.20;99.90
23283;DHT22;11810;51.178;3.878;2023-04-03T10:08:27;17.50;99.90
23283;DHT22;11810;51.178;3.878;2023-04-03T10:13:36;17.30;99.90
23283;DHT22;11810;51.178;3.878;2023-04-03T10:16:07;17.20;99.90
23283;DHT22;11810;51.178;3.878;2023-04-03T10:19:13;18.00;99.90
23283;DHT22;11810;51.178;3.878;2023-04-03T10:22:15;18.30;99.90
23283;DHT22;11810;51.178;3.878;2023-04-03T10:27:23;18.50;99.90
23283;DHT22;11810;51.178;3.878;2023-04-03T10:30:19;19.20;99.90
23283;DHT22;11810;51.178;3.878;2023-04-03T10:38:09;19.50;99.90
23283;DHT22;11810;51.178;3.878;2023-04-03T10:40:57;19.80;99.10
23283;DHT22;11810;51.178;3.878;2023-04-03T10:44:10;20.00;99.60
23283;DHT22;11810;51.178;3.878;2023-04-03T10:46:53;20.00;96.70
23283;DHT22;11810;51.178;3.878;2023-04-03T10:54:41;20.30;97.00
23283;DHT22;11810;51.178;3.878;2023-04-03T10:57:11;20.60;97.10
23283;DHT22;11810;51.178;3.878;2023-04-03T11:00:03;20.20;94.70
23283;DHT22;11810;51.178;3.878;2023-04-03T11:02:31;19.60;93.70
23283;DHT22;11810;51.178;3.878;2023-04-03T11:05:04;19.20;95.40
23283;DHT22;11810;51.178;3.878;2023-04-03T11:07:39;19.40;94.50
23283;DHT22;11810;51.178;3.878;2023-04-03T11:10:23;19.10;95.30
23283;DHT22;11810;51.178;3.878;2023-04-03T11:13:01;19.40;95.70
23283;DHT22;11810;51.178;3.878;2023-04-03T11:15:32;19.40;93.60
23283;DHT22;11810;51.178;3.878;2023-04-03T11:18:03;19.40;94.70
23283;DHT22;11810;51.178;3.878;2023-04-03T11:20:32;19.50;94.40
23283;DHT22;11810;51.178;3.878;2023-04-03T11:23:14;20.30;94.00
23283;DHT22;11810;51.178;3.878;2023-04-03T11:25:43;20.20;92.20
23283;DHT22;11810;51.178;3.878;2023-04-03T11:28:13;20.30;93.40
23283;DHT22;11810;51.178;3.878;2023-04-03T11:36:20;19.70;90.90
23283;DHT22;11810;51.178;3.878;2023-04-03T11:38:49;19.50;90.60
23283;DHT22;11810;51.178;3.878;2023-04-03T11:41:17;19.60;90.50
23283;DHT22;11810;51.178;3.878;2023-04-03T11:44:03;19.80;89.30
23283;DHT22;11810;51.178;3.878;2023-04-03T11:46:55;19.50;90.30
23283;DHT22;11810;51.178;3.878;2023-04-03T11:50:41;19.10;85.90
23283;DHT22;11810;51.178;3.878;2023-04-03T12:14:03;20.00;86.40
23283;DHT22;11810;51.178;3.878;2023-04-03T12:16:30;20.20;86.90
23283;DHT22;11810;51.178;3.878;2023-04-03T12:40:36;18.90;81.90
23283;DHT22;11810;51.178;3.878;2023-04-03T12:48:39;20.00;84.80
23283;DHT22;11810;51.178;3.878;2023-04-03T12:54:22;20.00;81.60
23283;DHT22;11810;51.178;3.878;2023-04-03T12:56:46;19.70;81.10
23283;DHT22;11810;51.178;3.878;2023-04-03T12:59:16;18.80;79.30
23283;DHT22;11810;51.178;3.878;2023-04-03T13:01:44;18.40;78.60
23283;DHT22;11810;51.178;3.878;2023-04-03T13:04:18;18.30;79.30
23283;DHT22;11810;51.178;3.878;2023-04-03T13:06:44;18.40;79.70
23283;DHT22;11810;51.178;3.878;2023-04-03T13:09:28;18.30;80.20
23283;DHT22;11810;51.178;3.878;2023-04-03T13:12:08;18.20;77.00
23283;DHT22;11810;51.178;3.878;2023-04-03T13:14:34;18.50;78.60
23283;DHT22;11810;51.178;3.878;2023-04-03T13:17:14;18.30;79.00
23283;DHT22;11810;51.178;3.878;2023-04-03T13:19:41;17.80;80.70
23283;DHT22;11810;51.178;3.878;2023-04-03T13:22:16;17.90;81.70
23283;DHT22;11810;51.178;3.878;2023-04-03T13:24:46;17.90;79.70
23283;DHT22;11810;51.178;3.878;2023-04-03T13:27:13;17.60;79.50
23283;DHT22;11810;51.178;3.878;2023-04-03T13:29:40;17.00;77.60
23283;DHT22;11810;51.178;3.878;2023-04-03T13:32:06;17.10;81.20
23283;DHT22;11810;51.178;3.878;2023-04-03T13:34:41;17.20;79.90
23283;DHT22;11810;51.178;3.878;2023-04-03T13:37:11;16.90;81.40
23283;DHT22;11810;51.178;3.878;2023-04-03T13:39:44;16.80;79.50
23283;DHT22;11810;51.178;3.878;2023-04-03T13:42:22;16.70;79.80
23283;DHT22;11810;51.178;3.878;2023-04-03T13:44:48;16.60;80.10
23283;DHT22;11810;51.178;3.878;2023-04-03T13:47:20;16.60;79.30
23283;DHT22;11810;51.178;3.878;2023-04-03T13:50:00;16.10;77.80
23283;DHT22;11810;51.178;3.878;2023-04-03T13:52:33;15.90;80.70
23283;DHT22;11810;51.178;3.878;2023-04-03T13:55:31;16.00;81.40
23283;DHT22;11810;51.178;3.878;2023-04-03T14:00:35;15.80;82.30
23283;DHT22;11810;51.178;3.878;2023-04-03T14:03:22;16.00;82.00
23283;DHT22;11810;51.178;3.878;2023-04-03T14:05:49;16.20;81.00
23283;DHT22;11810;51.178;3.878;2023-04-03T14:08:16;16.30;80.00
23283;DHT22;11810;51.178;3.878;2023-04-03T14:10:42;16.30;82.40
23283;DHT22;11810;51.178;3.878;2023-04-03T14:13:20;16.20;79.10
23283;DHT22;11810;51.178;3.878;2023-04-03T14:15:47;16.00;81.20
23283;DHT22;11810;51.178;3.878;2023-04-03T14:18:16;16.20;83.10
23283;DHT22;11810;51.178;3.878;2023-04-03T14:20:43;16.40;84.10
23283;DHT22;11810;51.178;3.878;2023-04-03T14:23:09;16.40;80.00
23283;DHT22;11810;51.178;3.878;2023-04-03T14:25:37;16.00;78.50
23283;DHT22;11810;51.178;3.878;2023-04-03T14:28:23;15.80;80.60
23283;DHT22;11810;51.178;3.878;2023-04-03T14:30:50;15.60;79.60
23283;DHT22;11810;51.178;3.878;2023-04-03T14:33:19;15.40;79.60
23283;DHT22;11810;51.178;3.878;2023-04-03T14:35:46;15.10;80.60
23283;DHT22;11810;51.178;3.878;2023-04-03T14:38:28;15.00;80.00
23283;DHT22;11810;51.178;3.878;2023-04-03T14:40:55;15.00;80.20
23283;DHT22;11810;51.178;3.878;2023-04-03T14:43:21;15.10;85.00
23283;DHT22;11810;51.178;3.878;2023-04-03T14:45:49;15.20;83.50
23283;DHT22;11810;51.178;3.878;2023-04-03T14:48:24;15.30;83.40
23283;DHT22;11810;51.178;3.878;2023-04-03T14:50:52;15.60;80.40
23283;DHT22;11810;51.178;3.878;2023-04-03T14:53:19;15.40;78.80
23283;DHT22;11810;51.178;3.878;2023-04-03T14:55:49;15.30;79.00
23283;DHT22;11810;51.178;3.878;2023-04-03T14:58:16;15.30;81.80
23283;DHT22;11810;51.178;3.878;2023-04-03T15:00:43;15.20;80.70
23283;DHT22;11810;51.178;3.878;2023-04-03T15:03:17;15.30;80.60
23283;DHT22;11810;51.178;3.878;2023-04-03T15:05:47;15.40;78.10
23283;DHT22;11810;51.178;3.878;2023-04-03T15:08:25;15.20;76.80
23283;DHT22;11810;51.178;3.878;2023-04-03T15:10:52;15.10;78.40
23283;DHT22;11810;51.178;3.878;2023-04-03T15:13:19;15.00;79.40
23283;DHT22;11810;51.178;3.878;2023-04-03T15:15:45;15.10;79.50
23283;DHT22;11810;51.178;3.878;2023-04-03T15:18:21;15.30;79.50
23283;DHT22;11810;51.178;3.878;2023-04-03T15:20:48;15.50;80.30
23283;DHT22;11810;51.178;3.878;2023-04-03T15:23:15;15.50;78.40
23283;DHT22;11810;51.178;3.878;2023-04-03T15:25:43;15.20;76.90
23283;DHT22;11810;51.178;3.878;2023-04-03T15:28:41;14.90;75.60
23283;DHT22;11810;51.178;3.878;2023-04-03T15:31:08;15.10;77.20
23283;DHT22;11810;51.178;3.878;2023-04-03T15:33:35;14.90;77.50
23283;DHT22;11810;51.178;3.878;2023-04-03T15:36:01;14.50;77.00
23283;DHT22;11810;51.178;3.878;2023-04-03T15:38:27;14.70;78.20
23283;DHT22;11810;51.178;3.878;2023-04-03T15:40:54;14.90;78.60
23283;DHT22;11810;51.178;3.878;2023-04-03T15:43:21;15.00;78.80
23283;DHT22;11810;51.178;3.878;2023-04-03T15:45:49;14.90;78.20
23283;DHT22;11810;51.178;3.878;2023-04-03T15:48:17;14.80;77.60
23283;DHT22;11810;51.178;3.878;2023-04-03T15:50:43;14.60;78.30
23283;DHT22;11810;51.178;3.878;2023-04-03T15:53:09;14.80;79.70
23283;DHT22;11810;51.178;3.878;2023-04-03T15:55:37;14.80;79.40
23283;DHT22;11810;51.178;3.878;2023-04-03T15:58:03;14.80;78.90
23283;DHT22;11810;51.178;3.878;2023-04-03T16:00:30;14.60;78.80
23283;DHT22;11810;51.178;3.878;2023-04-03T16:03:00;14.60;79.40
23283;DHT22;11810;51.178;3.878;2023-04-03T16:05:30;14.50;78.60
23283;DHT22;11810;51.178;3.878;2023-04-03T16:07:58;14.20;79.00
23283;DHT22;11810;51.178;3.878;2023-04-03T16:10:25;14.20;77.80
23283;DHT22;11810;51.178;3.878;2023-04-03T16:12:51;13.90;77.90
23283;DHT22;11810;51.178;3.878;2023-04-03T16:15:17;13.70;78.10
23283;DHT22;11810;51.178;3.878;2023-04-03T16:17:43;13.60;80.60
23283;DHT22;11810;51.178;3.878;2023-04-03T16:20:11;13.60;81.00
23283;DHT22;11810;51.178;3.878;2023-04-03T16:22:39;13.60;78.90
23283;DHT22;11810;51.178;3.878;2023-04-03T16:25:07;13.40;79.10
23283;DHT22;11810;51.178;3.878;2023-04-03T16:27:33;13.50;80.50
23283;DHT22;11810;51.178;3.878;2023-04-03T16:29:59;13.60;81.80
23283;DHT22;11810;51.178;3.878;2023-04-03T16:32:28;13.40;82.20
23283;DHT22;11810;51.178;3.878;2023-04-03T16:34:55;13.10;80.60
23283;DHT22;11810;51.178;3.878;2023-04-03T16:37:21;13.10;80.80
23283;DHT22;11810;51.178;3.878;2023-04-03T16:39:46;13.10;80.90
23283;DHT22;11810;51.178;3.878;2023-04-03T16:42:12;12.90;79.20
23283;DHT22;11810;51.178;3.878;2023-04-03T16:44:38;12.60;80.40
23283;DHT22;11810;51.178;3.878;2023-04-03T16:47:06;12.50;80.50
23283;DHT22;11810;51.178;3.878;2023-04-03T16:49:33;12.20;82.20
23283;DHT22;11810;51.178;3.878;2023-04-03T16:52:01;12.00;81.20
23283;DHT22;11810;51.178;3.878;2023-04-03T16:54:28;12.00;82.90
23283;DHT22;11810;51.178;3.878;2023-04-03T16:56:54;11.70;85.30
23283;DHT22;11810;51.178;3.878;2023-04-03T16:59:20;11.40;86.40
23283;DHT22;11810;51.178;3.878;2023-04-03T17:01:46;11.40;87.40
23283;DHT22;11810;51.178;3.878;2023-04-03T17:04:12;11.10;88.60
23283;DHT22;11810;51.178;3.878;2023-04-03T17:06:59;10.90;89.00
23283;DHT22;11810;51.178;3.878;2023-04-03T17:09:30;10.80;90.90
23283;DHT22;11810;51.178;3.878;2023-04-03T17:11:56;10.60;91.20
23283;DHT22;11810;51.178;3.878;2023-04-03T17:14:22;10.50;92.50
23283;DHT22;11810;51.178;3.878;2023-04-03T17:16:48;10.40;93.50
23283;DHT22;11810;51.178;3.878;2023-04-03T17:19:15;10.30;94.60
23283;DHT22;11810;51.178;3.878;2023-04-03T17:21:42;10.30;94.80
23283;DHT22;11810;51.178;3.878;2023-04-03T17:24:10;10.20;96.30
23283;DHT22;11810;51.178;3.878;2023-04-03T17:26:39;10.20;97.50
23283;DHT22;11810;51.178;3.878;2023-04-03T17:29:06;10.10;97.00
23283;DHT22;11810;51.178;3.878;2023-04-03T17:31:32;10.00;98.00
23283;DHT22;11810;51.178;3.878;2023-04-03T17:33:58;9.80;99.50
23283;DHT22;11810;51.178;3.878;2023-04-03T17:36:30;9.70;99.80
23283;DHT22;11810;51.178;3.878;2023-04-03T17:38:56;9.60;99.90
23283;DHT22;11810;51.178;3.878;2023-04-03T17:41:22;9.40;99.90
23283;DHT22;11810;51.178;3.878;2023-04-03T17:43:48;9.50;99.90
23283;DHT22;11810;51.178;3.878;2023-04-03T17:46:15;9.50;99.90
23283;DHT22;11810;51.178;3.878;2023-04-03T17:48:44;9.30;99.90
23283;DHT22;11810;51.178;3.878;2023-04-03T17:51:12;9.30;99.90
23283;DHT22;11810;51.178;3.878;2023-04-03T17:53:39;9.20;99.90
23283;DHT22;11810;51.178;3.878;2023-04-03T17:56:10;9.10;99.90